createdAt,value
2018-02-20T00:02:09.477Z,99.90
2018-02-20T00:04:38.326Z,99.90
2018-02-20T00:13:10.636Z,99.90
2018-02-20T00:15:40.259Z,99.90
2018-02-20T00:18:09.102Z,99.90
2018-02-20T00:20:38.838Z,99.90
2018-02-20T00:23:07.674Z,99.90
2018-02-20T00:25:36.515Z,99.90
2018-02-20T00:28:05.357Z,99.90
2018-02-20T00:30:34.197Z,99.90
2018-02-20T00:33:03.600Z,99.90
2018-02-20T00:35:32.429Z,99.90
2018-02-20T00:38:01.295Z,99.90
2018-02-20T00:40:30.149Z,99.90
2018-02-20T00:42:58.975Z,99.90
2018-02-20T00:45:27.852Z,99.90
2018-02-20T00:47:56.701Z,99.90
2018-02-20T00:50:26.311Z,99.90
2018-02-20T00:52:55.918Z,99.90
2018-02-20T00:55:25.515Z,99.90
2018-02-20T00:57:55.158Z,99.90
2018-02-20T01:00:24.007Z,99.90
2018-02-20T01:02:52.837Z,99.90
2018-02-20T01:05:21.676Z,99.90
2018-02-20T01:07:50.516Z,99.90
2018-02-20T01:10:19.365Z,99.90
2018-02-20T01:12:48.195Z,99.90
2018-02-20T01:15:17.594Z,99.90
2018-02-20T01:17:46.450Z,99.90
2018-02-20T01:20:16.059Z,99.90
2018-02-20T01:22:45.678Z,99.90
2018-02-20T01:25:15.282Z,99.90
2018-02-20T01:27:45.654Z,99.90
2018-02-20T01:30:15.468Z,99.90
2018-02-20T01:32:44.317Z,99.90
2018-02-20T01:35:13.178Z,99.90
2018-02-20T01:37:43.535Z,99.90
2018-02-20T01:40:13.142Z,99.90
2018-02-20T01:42:42.765Z,99.90
2018-02-20T01:45:11.612Z,99.90
2018-02-20T01:47:40.459Z,99.90
2018-02-20T01:50:09.330Z,99.90
2018-02-20T01:52:38.167Z,99.90
2018-02-20T01:55:07.009Z,99.90
2018-02-20T01:57:35.851Z,99.90
2018-02-20T02:00:04.762Z,99.90
2018-02-20T02:02:34.374Z,99.90
2018-02-20T02:05:04.003Z,99.90
2018-02-20T02:07:32.818Z,99.90
2018-02-20T02:10:01.659Z,99.90
2018-02-20T02:12:31.263Z,99.90
2018-02-20T02:15:00.871Z,99.90
2018-02-20T02:17:30.922Z,99.90
2018-02-20T02:19:59.772Z,99.90
2018-02-20T02:22:28.619Z,99.90
2018-02-20T02:24:57.446Z,99.90
2018-02-20T02:27:26.290Z,99.90
2018-02-20T02:29:55.128Z,99.90
2018-02-20T02:32:23.966Z,99.90
2018-02-20T02:34:52.831Z,99.90
2018-02-20T02:37:21.681Z,99.90
2018-02-20T02:39:51.274Z,99.90
2018-02-20T02:42:20.451Z,99.90
2018-02-20T02:44:49.287Z,99.90
2018-02-20T02:47:18.130Z,99.90
2018-02-20T02:49:46.974Z,99.90
2018-02-20T02:52:15.824Z,99.90
2018-02-20T02:54:45.428Z,99.90
2018-02-20T02:57:15.072Z,99.90
2018-02-20T02:59:44.687Z,99.90
2018-02-20T03:02:14.431Z,99.90
2018-02-20T03:04:43.264Z,99.90
2018-02-20T03:07:12.147Z,99.90
2018-02-20T03:09:40.962Z,99.90
2018-02-20T03:12:09.810Z,99.90
2018-02-20T03:14:38.630Z,99.90
2018-02-20T03:17:07.508Z,99.90
2018-02-20T03:19:36.403Z,99.90
2018-02-20T03:22:05.239Z,99.90
2018-02-20T03:24:34.846Z,99.90
2018-02-20T03:27:04.461Z,99.90
2018-02-20T03:29:33.550Z,99.90
2018-02-20T03:32:03.166Z,99.90
2018-02-20T03:34:32.763Z,99.90
2018-02-20T03:37:02.374Z,99.90
2018-02-20T03:39:31.977Z,99.90
2018-02-20T03:42:01.615Z,99.90
2018-02-20T03:44:30.502Z,99.90
2018-02-20T03:46:59.330Z,99.90
2018-02-20T03:49:28.191Z,99.90
2018-02-20T03:51:57.019Z,99.90
2018-02-20T03:54:25.853Z,99.90
2018-02-20T03:56:54.717Z,99.90
2018-02-20T03:59:24.364Z,99.90
2018-02-20T04:01:53.196Z,99.90
2018-02-20T04:04:22.803Z,99.90
2018-02-20T04:06:51.642Z,99.90
2018-02-20T04:09:20.516Z,99.90
2018-02-20T04:11:50.111Z,99.90
2018-02-20T04:14:19.723Z,99.90
2018-02-20T04:16:49.350Z,99.90
2018-02-20T04:19:18.527Z,99.90
2018-02-20T04:21:47.390Z,99.90
2018-02-20T04:24:16.991Z,99.90
2018-02-20T04:26:46.618Z,99.90
2018-02-20T04:29:15.460Z,99.90
2018-02-20T04:31:44.302Z,99.90
2018-02-20T04:34:13.141Z,99.90
2018-02-20T04:36:41.986Z,99.90
2018-02-20T04:39:10.823Z,99.90
2018-02-20T04:41:39.671Z,99.90
2018-02-20T04:44:08.506Z,99.90
2018-02-20T04:46:37.503Z,99.90
2018-02-20T04:49:07.099Z,99.90
2018-02-20T04:51:35.956Z,99.90
2018-02-20T04:54:04.782Z,99.90
2018-02-20T04:56:33.614Z,99.90
2018-02-20T04:59:02.454Z,99.90
2018-02-20T05:01:31.537Z,99.90
2018-02-20T05:04:00.340Z,99.90
2018-02-20T05:06:29.191Z,99.90
2018-02-20T05:08:58.039Z,99.90
2018-02-20T05:11:27.666Z,99.90
2018-02-20T05:13:56.515Z,99.90
2018-02-20T05:16:25.347Z,99.90
2018-02-20T05:18:54.201Z,99.90
2018-02-20T05:21:23.079Z,99.90
2018-02-20T05:23:51.978Z,99.90
2018-02-20T05:26:21.906Z,99.90
2018-02-20T05:28:50.766Z,99.90
2018-02-20T05:31:19.606Z,99.90
2018-02-20T05:33:48.454Z,99.90
2018-02-20T05:36:17.288Z,99.90
2018-02-20T05:38:46.129Z,99.90
2018-02-20T05:41:14.998Z,99.90
2018-02-20T05:43:44.625Z,99.90
2018-02-20T05:46:13.462Z,99.90
2018-02-20T05:48:42.307Z,99.90
2018-02-20T05:51:11.147Z,99.90
2018-02-20T05:53:39.978Z,99.90
2018-02-20T05:56:08.865Z,99.90
2018-02-20T05:58:37.708Z,99.90
2018-02-20T06:01:06.562Z,99.90
2018-02-20T06:03:35.392Z,99.90
2018-02-20T06:06:04.238Z,99.90
2018-02-20T06:08:33.100Z,99.90
2018-02-20T06:11:01.958Z,99.90
2018-02-20T06:13:30.793Z,99.90
2018-02-20T06:15:59.635Z,99.90
2018-02-20T06:18:28.475Z,99.90
2018-02-20T06:20:57.367Z,99.90
2018-02-20T06:23:26.226Z,99.90
2018-02-20T06:25:55.116Z,99.90
2018-02-20T06:28:23.950Z,99.90
2018-02-20T06:30:52.806Z,99.90
2018-02-20T06:33:21.646Z,99.90
2018-02-20T06:35:51.282Z,99.90
2018-02-20T06:38:20.144Z,99.90
2018-02-20T06:40:49.772Z,99.90
2018-02-20T06:43:19.386Z,99.90
2018-02-20T06:45:48.232Z,99.90
2018-02-20T06:48:17.081Z,99.90
2018-02-20T06:50:45.975Z,99.90
2018-02-20T06:53:15.563Z,99.90
2018-02-20T06:55:44.405Z,99.90
2018-02-20T06:58:13.257Z,99.90
2018-02-20T07:00:42.446Z,99.90
2018-02-20T07:03:11.302Z,99.90
2018-02-20T07:05:40.926Z,99.90
2018-02-20T07:08:09.779Z,99.90
2018-02-20T07:10:38.822Z,99.90
2018-02-20T07:13:07.658Z,99.90
2018-02-20T07:15:36.502Z,99.90
2018-02-20T07:18:05.343Z,99.90
2018-02-20T07:20:35.691Z,99.90
2018-02-20T07:23:04.536Z,99.90
2018-02-20T07:25:33.385Z,99.90
2018-02-20T07:28:03.002Z,99.90
2018-02-20T07:30:31.866Z,99.90
2018-02-20T07:33:00.721Z,99.90
2018-02-20T07:35:29.561Z,99.90
2018-02-20T07:37:59.170Z,99.90
2018-02-20T07:40:28.777Z,99.90
2018-02-20T07:42:58.396Z,99.90
2018-02-20T07:45:27.999Z,99.90
2018-02-20T07:47:58.556Z,99.90
2018-02-20T07:50:27.412Z,99.90
2018-02-20T07:52:57.017Z,99.90
2018-02-20T07:55:26.627Z,99.90
2018-02-20T07:57:56.237Z,99.90
2018-02-20T08:00:25.865Z,99.90
2018-02-20T08:02:54.703Z,99.90
2018-02-20T08:05:23.553Z,99.90
2018-02-20T08:07:52.384Z,99.90
2018-02-20T08:10:21.221Z,99.90
2018-02-20T08:12:50.074Z,99.90
2018-02-20T08:15:19.690Z,99.90
2018-02-20T08:17:49.314Z,99.90
2018-02-20T08:20:18.146Z,99.90
2018-02-20T08:22:47.007Z,99.90
2018-02-20T08:25:15.872Z,99.90
2018-02-20T08:27:45.498Z,99.90
2018-02-20T08:30:15.106Z,99.90
2018-02-20T08:32:43.949Z,99.90
2018-02-20T08:35:12.783Z,99.90
2018-02-20T08:37:41.622Z,99.90
2018-02-20T08:40:10.470Z,99.90
2018-02-20T08:42:39.313Z,99.90
2018-02-20T08:45:08.937Z,99.90
2018-02-20T08:47:38.553Z,99.90
2018-02-20T08:50:07.414Z,99.90
2018-02-20T08:52:36.255Z,99.90
2018-02-20T08:55:05.103Z,99.90
2018-02-20T08:57:34.720Z,99.90
2018-02-20T09:00:04.330Z,99.90
2018-02-20T09:02:33.191Z,99.90
2018-02-20T09:05:02.112Z,99.90
2018-02-20T09:07:31.151Z,99.90
2018-02-20T09:10:00.020Z,99.90
2018-02-20T09:12:28.845Z,99.90
2018-02-20T09:14:57.692Z,99.90
2018-02-20T09:17:28.090Z,99.90
2018-02-20T09:19:57.780Z,99.90
2018-02-20T09:22:26.619Z,99.90
2018-02-20T09:24:55.458Z,99.90
2018-02-20T09:27:25.059Z,99.90
2018-02-20T09:29:54.702Z,99.90
2018-02-20T09:32:23.549Z,99.90
2018-02-20T09:34:53.146Z,99.90
2018-02-20T09:37:22.002Z,99.90
2018-02-20T09:39:50.832Z,99.90
2018-02-20T09:42:20.450Z,99.90
2018-02-20T09:44:50.069Z,99.90
2018-02-20T09:47:18.946Z,99.90
2018-02-20T09:49:48.897Z,99.90
2018-02-20T09:52:17.723Z,99.90
2018-02-20T09:54:46.596Z,99.90
2018-02-20T09:57:15.444Z,99.90
2018-02-20T09:59:44.270Z,99.90
2018-02-20T10:02:13.150Z,99.90
2018-02-20T10:04:41.991Z,99.90
2018-02-20T10:07:11.630Z,97.90
2018-02-20T10:09:40.487Z,97.90
2018-02-20T10:12:10.127Z,89.80
2018-02-20T10:14:38.991Z,89.60
2018-02-20T10:17:08.636Z,75.20
2018-02-20T10:19:37.525Z,75.10
2018-02-20T10:22:06.374Z,71.40
2018-02-20T10:24:35.225Z,64.60
2018-02-20T10:27:04.886Z,61.00
2018-02-20T10:29:34.496Z,60.10
2018-02-20T10:32:04.103Z,58.70
2018-02-20T10:34:33.731Z,57.30
2018-02-20T10:37:02.579Z,57.20
2018-02-20T10:39:31.829Z,53.60
2018-02-20T10:42:00.704Z,52.80
2018-02-20T10:44:30.336Z,51.50
2018-02-20T10:46:59.190Z,51.40
2018-02-20T10:49:28.686Z,51.60
2018-02-20T10:51:58.293Z,51.40
2018-02-20T10:54:27.159Z,51.40
2018-02-20T10:56:56.002Z,51.00
2018-02-20T10:59:24.859Z,49.10
2018-02-20T11:01:54.534Z,48.80
2018-02-20T11:04:23.355Z,48.70
2018-02-20T11:06:52.977Z,50.30
2018-02-20T11:09:22.571Z,49.50
2018-02-20T11:11:51.649Z,49.50
2018-02-20T11:14:20.503Z,48.20
2018-02-20T11:16:51.895Z,48.50
2018-02-20T11:19:18.226Z,47.80
2018-02-20T11:21:48.456Z,46.50
2018-02-20T11:24:17.842Z,46.50
2018-02-20T11:26:46.711Z,46.10
2018-02-20T11:29:16.838Z,44.90
2018-02-20T11:31:46.470Z,44.20
2018-02-20T11:34:15.314Z,44.20
2018-02-20T11:36:44.942Z,44.10
2018-02-20T11:39:14.561Z,44.50
2018-02-20T11:41:43.412Z,45.00
2018-02-20T11:44:12.770Z,45.70
2018-02-20T11:46:41.623Z,47.40
2018-02-20T11:49:11.245Z,50.90
2018-02-20T11:51:40.124Z,50.90
2018-02-20T11:54:09.745Z,55.60
2018-02-20T11:56:39.371Z,61.30
2018-02-20T11:59:08.210Z,61.30
2018-02-20T12:01:37.067Z,70.60
2018-02-20T12:04:05.921Z,81.90
2018-02-20T12:06:34.767Z,88.40
2018-02-20T12:09:03.623Z,90.80
2018-02-20T12:11:32.480Z,92.20
2018-02-20T12:14:02.196Z,93.90
2018-02-20T12:16:30.962Z,93.90
2018-02-20T12:19:00.581Z,94.50
2018-02-20T12:21:30.192Z,94.50
2018-02-20T12:23:59.830Z,94.00
2018-02-20T12:26:29.444Z,91.90
2018-02-20T12:28:59.058Z,87.70
2018-02-20T12:31:28.698Z,85.10
2018-02-20T12:33:57.586Z,84.80
2018-02-20T12:36:26.446Z,87.40
2018-02-20T12:38:55.311Z,86.90
2018-02-20T12:41:25.049Z,91.90
2018-02-20T12:43:53.879Z,91.80
2018-02-20T12:46:22.737Z,92.70
2018-02-20T12:48:51.578Z,93.30
2018-02-20T12:51:20.434Z,95.30
2018-02-20T12:53:49.258Z,96.60
2018-02-20T12:56:18.110Z,99.40
2018-02-20T12:58:46.955Z,99.90
2018-02-20T13:01:16.568Z,99.90
2018-02-20T13:03:46.175Z,99.90
2018-02-20T13:06:15.812Z,99.90
2018-02-20T13:08:44.669Z,99.90
2018-02-20T13:11:14.268Z,99.90
2018-02-20T13:13:43.891Z,99.90
2018-02-20T13:16:13.523Z,99.90
2018-02-20T13:18:42.381Z,99.90
2018-02-20T13:21:11.989Z,99.90
2018-02-20T13:23:41.599Z,99.90
2018-02-20T13:26:11.219Z,99.90
2018-02-20T13:28:40.894Z,99.90
2018-02-20T13:31:09.742Z,99.90
2018-02-20T13:33:38.597Z,99.90
2018-02-20T13:36:07.466Z,99.90
2018-02-20T13:38:36.310Z,99.90
2018-02-20T13:41:05.943Z,99.90
2018-02-20T13:43:34.776Z,99.90
2018-02-20T13:46:04.844Z,99.90
2018-02-20T13:48:33.702Z,99.90
2018-02-20T13:51:03.302Z,99.90
2018-02-20T13:53:32.918Z,99.90
2018-02-20T13:56:02.552Z,99.90
2018-02-20T13:58:31.397Z,99.90
2018-02-20T14:01:01.007Z,99.90
2018-02-20T14:03:29.854Z,99.90
2018-02-20T14:05:58.714Z,99.90
2018-02-20T14:08:27.564Z,99.90
2018-02-20T14:10:56.403Z,99.90
2018-02-20T14:13:25.671Z,99.90
2018-02-20T14:15:55.276Z,99.90
2018-02-20T14:18:24.573Z,99.90
2018-02-20T14:20:54.411Z,99.90
2018-02-20T14:23:24.042Z,99.90
2018-02-20T14:25:52.889Z,99.90
2018-02-20T14:28:21.726Z,99.90
2018-02-20T14:30:50.566Z,99.90
2018-02-20T14:33:19.403Z,99.90
2018-02-20T14:35:49.750Z,99.90
2018-02-20T14:38:19.385Z,99.90
2018-02-20T14:40:48.634Z,99.90
2018-02-20T14:43:17.497Z,99.90
2018-02-20T14:45:46.362Z,99.90
2018-02-20T14:48:15.993Z,99.90
2018-02-20T14:50:44.850Z,99.90
2018-02-20T14:53:14.450Z,99.90
2018-02-20T14:55:44.082Z,99.90
2018-02-20T14:58:12.939Z,99.90
2018-02-20T15:00:42.686Z,99.90
2018-02-20T15:03:11.522Z,99.90
2018-02-20T15:05:40.367Z,99.90
2018-02-20T15:08:09.222Z,99.90
2018-02-20T15:10:38.910Z,99.90
2018-02-20T15:13:07.715Z,99.90
2018-02-20T15:15:37.359Z,99.90
2018-02-20T15:18:06.468Z,99.90
2018-02-20T15:20:35.303Z,99.90
2018-02-20T15:23:04.986Z,99.90
2018-02-20T15:25:33.814Z,99.90
2018-02-20T15:28:02.649Z,99.90
2018-02-20T15:30:31.504Z,99.90
2018-02-20T15:33:01.001Z,99.90
2018-02-20T15:35:30.623Z,99.90
2018-02-20T15:37:59.486Z,99.90
2018-02-20T15:40:28.347Z,99.90
2018-02-20T15:42:57.975Z,99.90
2018-02-20T15:45:26.816Z,99.90
2018-02-20T15:47:55.678Z,99.90
2018-02-20T15:50:24.518Z,99.90
2018-02-20T15:52:54.971Z,99.90
2018-02-20T15:55:23.828Z,99.90
2018-02-20T15:57:53.477Z,99.90
2018-02-20T16:00:23.076Z,99.90
2018-02-20T16:02:52.673Z,99.90
2018-02-20T16:05:21.515Z,99.90
2018-02-20T16:07:50.373Z,99.90
2018-02-20T16:10:19.211Z,99.90
2018-02-20T16:12:48.066Z,99.90
2018-02-20T16:15:16.913Z,99.90
2018-02-20T16:17:46.842Z,99.90
2018-02-20T16:20:15.731Z,99.90
2018-02-20T16:22:44.547Z,99.90
2018-02-20T16:25:13.475Z,99.90
2018-02-20T16:27:42.311Z,99.90
2018-02-20T16:30:11.945Z,99.90
2018-02-20T16:32:40.786Z,99.90
2018-02-20T16:35:10.049Z,99.90
2018-02-20T16:37:39.409Z,99.90
2018-02-20T16:40:09.023Z,99.90
2018-02-20T16:42:38.615Z,99.90
2018-02-20T16:45:08.264Z,99.90
2018-02-20T16:47:37.955Z,99.90
2018-02-20T16:50:06.825Z,99.90
2018-02-20T16:52:36.443Z,99.90
2018-02-20T16:55:06.066Z,99.90
2018-02-20T16:57:34.924Z,99.90
2018-02-20T17:00:04.098Z,99.90
2018-02-20T17:02:32.955Z,99.90
2018-02-20T17:05:01.795Z,99.90
2018-02-20T17:07:31.426Z,99.90
2018-02-20T17:10:00.313Z,99.90
2018-02-20T17:12:29.591Z,99.90
2018-02-20T17:14:58.424Z,99.90
2018-02-20T17:17:27.269Z,99.90
2018-02-20T17:19:56.883Z,99.90
2018-02-20T17:22:26.495Z,99.90
2018-02-20T17:24:56.117Z,99.90
2018-02-20T17:27:25.740Z,99.90
2018-02-20T17:29:55.339Z,99.90
2018-02-20T17:32:25.075Z,99.90
2018-02-20T17:34:53.921Z,99.90
2018-02-20T17:37:22.775Z,99.90
2018-02-20T17:39:51.631Z,99.90
2018-02-20T17:42:21.272Z,99.90
2018-02-20T17:44:50.148Z,99.90
2018-02-20T17:47:19.046Z,99.90
2018-02-20T17:49:48.221Z,99.90
2018-02-20T17:52:18.041Z,99.90
2018-02-20T17:54:46.894Z,99.90
2018-02-20T17:57:16.537Z,99.90
2018-02-20T17:59:45.404Z,99.90
2018-02-20T18:02:15.039Z,99.90
2018-02-20T18:04:44.115Z,99.90
2018-02-20T18:07:13.203Z,99.90
2018-02-20T18:09:42.836Z,99.90
2018-02-20T18:12:11.681Z,99.90
2018-02-20T18:14:40.526Z,99.90
2018-02-20T18:17:09.403Z,99.90
2018-02-20T18:19:38.989Z,99.90
2018-02-20T18:22:08.614Z,99.90
2018-02-20T18:24:37.484Z,99.90
2018-02-20T18:27:07.074Z,99.90
2018-02-20T18:29:36.980Z,99.90
2018-02-20T18:32:06.556Z,99.90
2018-02-20T18:34:35.438Z,99.90
2018-02-20T18:37:05.073Z,99.90
2018-02-20T18:39:34.705Z,99.90
2018-02-20T18:42:03.957Z,99.90
2018-02-20T18:44:32.807Z,99.90
2018-02-20T18:47:01.673Z,99.90
2018-02-20T18:49:30.523Z,99.90
2018-02-20T18:51:59.421Z,99.90
2018-02-20T18:54:29.031Z,99.90
2018-02-20T18:56:58.731Z,99.90
2018-02-20T18:59:27.549Z,99.90
2018-02-20T19:01:56.586Z,99.90
2018-02-20T19:04:25.460Z,99.90
2018-02-20T19:06:54.334Z,99.90
2018-02-20T19:09:23.966Z,99.90
2018-02-20T19:11:52.805Z,99.90
2018-02-20T19:14:22.407Z,99.90
2018-02-20T19:16:52.049Z,99.90
2018-02-20T19:19:20.898Z,99.90
2018-02-20T19:21:49.811Z,99.90
2018-02-20T19:24:18.614Z,99.90
2018-02-20T19:26:47.494Z,99.90
2018-02-20T19:29:16.371Z,99.90
2018-02-20T19:31:45.267Z,99.90
2018-02-20T19:34:14.129Z,99.90
2018-02-20T19:36:44.794Z,99.90
2018-02-20T19:39:13.744Z,99.90
2018-02-20T19:41:42.646Z,99.90
2018-02-20T19:44:12.829Z,99.90
2018-02-20T19:46:41.692Z,99.90
2018-02-20T19:49:10.542Z,99.90
2018-02-20T19:51:40.159Z,99.90
2018-02-20T19:54:09.038Z,99.90
2018-02-20T19:56:38.646Z,99.90
2018-02-20T19:59:07.634Z,99.90
2018-02-20T20:01:37.282Z,99.90
2018-02-20T20:04:06.159Z,99.90
2018-02-20T20:06:35.782Z,99.90
2018-02-20T20:09:04.614Z,99.90
2018-02-20T20:11:33.480Z,99.90
2018-02-20T20:14:02.348Z,99.90
2018-02-20T20:16:31.971Z,99.90
2018-02-20T20:19:00.840Z,99.90
2018-02-20T20:21:29.719Z,99.90
2018-02-20T20:23:59.345Z,99.90
2018-02-20T20:26:28.236Z,99.90
2018-02-20T20:28:57.092Z,99.90
2018-02-20T20:31:26.845Z,99.90
2018-02-20T20:33:56.452Z,99.90
2018-02-20T20:36:25.304Z,99.90
2018-02-20T20:38:54.927Z,99.90
2018-02-20T20:41:24.828Z,99.90
2018-02-20T20:43:54.440Z,99.90
2018-02-20T20:46:23.290Z,99.90
2018-02-20T20:48:52.156Z,99.90
2018-02-20T20:51:21.035Z,99.90
2018-02-20T20:53:49.877Z,99.90
2018-02-20T20:56:19.486Z,99.90
2018-02-20T20:58:49.127Z,99.90
2018-02-20T21:01:17.990Z,99.90
2018-02-20T21:03:47.619Z,99.90
2018-02-20T21:06:16.458Z,99.90
2018-02-20T21:08:45.331Z,99.90
2018-02-20T21:11:14.183Z,99.90
2018-02-20T21:13:43.182Z,99.90
2018-02-20T21:16:12.023Z,99.90
2018-02-20T21:18:40.864Z,99.90
2018-02-20T21:21:09.715Z,99.90
2018-02-20T21:23:39.372Z,99.90
2018-02-20T21:26:10.710Z,99.90
2018-02-20T21:28:39.548Z,99.90
2018-02-20T21:31:08.391Z,99.90
2018-02-20T21:33:37.243Z,99.90
2018-02-20T21:36:06.883Z,99.90
2018-02-20T21:38:35.726Z,99.90
2018-02-20T21:41:05.343Z,99.90
2018-02-20T21:43:34.985Z,99.90
2018-02-20T21:46:03.833Z,99.90
2018-02-20T21:48:33.487Z,99.90
2018-02-20T21:51:02.362Z,99.90
2018-02-20T21:53:31.217Z,99.90
2018-02-20T21:56:00.847Z,99.90
2018-02-20T21:58:30.470Z,99.90
2018-02-20T22:01:00.080Z,99.90
2018-02-20T22:03:28.938Z,99.90
2018-02-20T22:05:57.776Z,99.90
2018-02-20T22:08:26.615Z,99.90
2018-02-20T22:10:56.220Z,99.90
2018-02-20T22:13:25.873Z,99.90
2018-02-20T22:15:54.705Z,99.90
2018-02-20T22:18:23.552Z,99.90
2018-02-20T22:20:52.404Z,99.90
2018-02-20T22:23:22.002Z,99.90
2018-02-20T22:25:51.622Z,99.90
2018-02-20T22:28:20.482Z,99.90
2018-02-20T22:30:49.336Z,99.90
2018-02-20T22:33:18.993Z,99.90
2018-02-20T22:35:47.827Z,99.90
2018-02-20T22:38:16.742Z,99.90
2018-02-20T22:40:45.594Z,99.90
2018-02-20T22:43:14.438Z,99.90
2018-02-20T22:45:44.082Z,99.90
2018-02-20T22:48:13.083Z,99.90
2018-02-20T22:50:41.923Z,99.90
2018-02-20T22:53:11.544Z,99.90
2018-02-20T22:55:42.882Z,99.90
2018-02-20T22:58:12.500Z,99.90
2018-02-20T23:00:42.134Z,99.90
2018-02-20T23:03:11.514Z,99.90
2018-02-20T23:05:41.142Z,99.90
2018-02-20T23:08:10.297Z,99.90
2018-02-20T23:10:39.973Z,99.90
2018-02-20T23:13:08.834Z,99.90
2018-02-20T23:15:37.666Z,99.90
2018-02-20T23:18:06.495Z,99.90
2018-02-20T23:20:36.103Z,99.90
2018-02-20T23:23:04.946Z,99.90
2018-02-20T23:25:33.791Z,99.90
2018-02-20T23:28:02.638Z,99.90
2018-02-20T23:30:31.506Z,99.90
2018-02-20T23:33:01.121Z,99.90
2018-02-20T23:35:30.759Z,99.90
2018-02-20T23:37:59.631Z,99.90
2018-02-20T23:40:28.471Z,99.90
2018-02-20T23:42:57.314Z,99.90
2018-02-20T23:45:26.155Z,99.90
2018-02-20T23:47:55.001Z,99.90
2018-02-20T23:50:23.844Z,99.90
2018-02-20T23:52:53.536Z,99.90
2018-02-20T23:55:22.368Z,99.90
2018-02-20T23:57:51.984Z,99.90
